createdAt,value
2023-01-30T00:01:44.800Z,100889.47
2023-01-30T00:04:57.594Z,100896.72
2023-01-30T00:08:09.974Z,100890.00
2023-01-30T00:11:22.866Z,100889.31
2023-01-30T00:14:35.281Z,100881.13
2023-01-30T00:17:47.908Z,100876.28
2023-01-30T00:21:01.421Z,100876.19
2023-01-30T00:24:14.222Z,100862.88
2023-01-30T00:27:26.686Z,100865.16
2023-01-30T00:30:41.449Z,100859.91
2023-01-30T00:33:53.827Z,100854.44
2023-01-30T00:37:09.015Z,100845.16
2023-01-30T00:40:21.336Z,100848.28
2023-01-30T00:43:52.725Z,100851.38
2023-01-30T00:47:09.218Z,100849.91
2023-01-30T00:50:21.941Z,100858.97
2023-01-30T00:53:34.236Z,100854.59
2023-01-30T00:56:46.894Z,100856.72
2023-01-30T00:59:59.494Z,100855.09
2023-01-30T01:03:12.222Z,100858.09
2023-01-30T01:06:24.592Z,100851.72
2023-01-30T01:09:37.439Z,100842.50
2023-01-30T01:12:50.449Z,100840.69
2023-01-30T01:16:03.120Z,100832.84
2023-01-30T01:22:55.555Z,100828.06
2023-01-30T01:26:08.213Z,100831.59
2023-01-30T01:29:20.678Z,100823.31
2023-01-30T01:32:33.376Z,100818.38
2023-01-30T01:35:47.928Z,100820.00
2023-01-30T01:39:01.601Z,100820.66
2023-01-30T01:42:13.993Z,100804.97
2023-01-30T01:45:26.653Z,100804.19
2023-01-30T01:48:46.325Z,100805.06
2023-01-30T01:52:13.216Z,100805.38
2023-01-30T01:55:25.624Z,100804.62
2023-01-30T01:58:45.636Z,100795.56
2023-01-30T02:01:59.140Z,100792.25
2023-01-30T02:05:12.809Z,100792.06
2023-01-30T02:08:27.724Z,100782.06
2023-01-30T02:12:06.664Z,100778.06
2023-01-30T02:15:19.603Z,100774.19
2023-01-30T02:18:33.032Z,100764.50
2023-01-30T02:22:06.778Z,100758.34
2023-01-30T02:25:19.750Z,100763.50
2023-01-30T02:28:38.338Z,100759.97
2023-01-30T02:32:20.078Z,100743.94
2023-01-30T02:36:04.292Z,100738.94
2023-01-30T02:39:32.791Z,100733.94
2023-01-30T02:42:51.592Z,100734.75
2023-01-30T02:46:16.222Z,100723.78
2023-01-30T02:49:54.867Z,100721.66
2023-01-30T02:53:07.516Z,100719.16
2023-01-30T02:56:19.918Z,100713.97
2023-01-30T02:59:36.320Z,100715.94
2023-01-30T03:03:20.081Z,100705.37
2023-01-30T03:06:38.688Z,100710.44
2023-01-30T03:09:58.115Z,100710.34
2023-01-30T03:13:26.662Z,100698.75
2023-01-30T03:16:40.152Z,100701.31
2023-01-30T03:19:53.458Z,100700.22
2023-01-30T03:23:05.868Z,100695.25
2023-01-30T03:26:20.396Z,100684.69
2023-01-30T03:29:33.388Z,100687.25
2023-01-30T03:32:46.007Z,100680.28
2023-01-30T03:35:59.270Z,100683.41
2023-01-30T03:39:11.954Z,100682.75
2023-01-30T03:42:24.525Z,100685.41
2023-01-30T03:45:37.219Z,100686.00
2023-01-30T03:48:50.484Z,100670.31
2023-01-30T03:52:03.174Z,100674.81
2023-01-30T03:55:15.827Z,100670.31
2023-01-30T03:58:28.891Z,100673.09
2023-01-30T04:01:41.758Z,100659.97
2023-01-30T04:04:54.769Z,100658.84
2023-01-30T04:08:07.540Z,100653.53
2023-01-30T04:11:21.180Z,100659.88
2023-01-30T04:14:33.758Z,100649.12
2023-01-30T04:17:49.173Z,100654.97
2023-01-30T04:21:02.255Z,100658.38
2023-01-30T04:24:15.283Z,100655.69
2023-01-30T04:27:27.905Z,100654.09
2023-01-30T04:30:42.292Z,100655.97
2023-01-30T04:33:56.031Z,100653.00
2023-01-30T04:37:09.226Z,100642.66
2023-01-30T04:40:22.689Z,100639.84
2023-01-30T04:43:35.339Z,100634.13
2023-01-30T04:46:49.492Z,100629.56
2023-01-30T04:50:02.288Z,100626.28
2023-01-30T04:53:15.288Z,100622.63
2023-01-30T04:56:28.187Z,100612.47
2023-01-30T04:59:40.779Z,100604.97
2023-01-30T05:02:55.979Z,100608.41
2023-01-30T05:06:08.309Z,100606.09
2023-01-30T05:09:20.916Z,100606.09
2023-01-30T05:12:33.456Z,100607.00
2023-01-30T05:15:46.063Z,100618.00
2023-01-30T05:18:58.421Z,100610.28
2023-01-30T05:22:11.103Z,100608.81
2023-01-30T05:25:23.480Z,100610.28
2023-01-30T05:28:36.146Z,100604.88
2023-01-30T05:31:48.626Z,100597.66
2023-01-30T05:35:01.700Z,100598.19
2023-01-30T05:38:14.114Z,100599.94
2023-01-30T05:41:26.736Z,100599.03
2023-01-30T05:44:39.138Z,100599.19
2023-01-30T05:47:56.318Z,100588.19
2023-01-30T05:51:18.533Z,100591.66
2023-01-30T05:54:31.183Z,100595.25
2023-01-30T05:57:43.547Z,100592.47
2023-01-30T06:01:06.765Z,100595.38
2023-01-30T06:04:19.415Z,100597.00
2023-01-30T06:07:32.249Z,100591.12
2023-01-30T06:10:44.888Z,100596.19
2023-01-30T06:13:57.279Z,100596.69
2023-01-30T06:17:09.955Z,100591.16
2023-01-30T06:20:22.312Z,100596.47
2023-01-30T06:23:35.013Z,100589.59
2023-01-30T06:26:47.421Z,100597.25
2023-01-30T06:30:00.110Z,100603.59
2023-01-30T06:33:12.487Z,100604.88
2023-01-30T06:36:25.234Z,100596.41
2023-01-30T06:39:37.584Z,100591.06
2023-01-30T06:42:50.280Z,100586.34
2023-01-30T06:46:02.738Z,100601.16
2023-01-30T06:49:15.601Z,100601.53
2023-01-30T06:52:27.985Z,100590.31
2023-01-30T06:55:40.608Z,100595.25
2023-01-30T06:58:53.034Z,100596.16
2023-01-30T07:02:05.740Z,100573.56
2023-01-30T07:05:18.538Z,100578.47
2023-01-30T07:08:31.386Z,100569.53
2023-01-30T07:11:43.770Z,100583.50
2023-01-30T07:14:56.424Z,100583.13
2023-01-30T07:18:08.769Z,100576.59
2023-01-30T07:21:21.376Z,100565.87
2023-01-30T07:24:33.836Z,100554.50
2023-01-30T07:28:02.366Z,100557.66
2023-01-30T07:31:14.732Z,100561.44
2023-01-30T07:34:27.328Z,100557.09
2023-01-30T07:37:39.655Z,100563.50
2023-01-30T07:40:53.764Z,100559.19
2023-01-30T07:44:07.745Z,100565.56
2023-01-30T07:47:20.515Z,100559.72
2023-01-30T07:50:33.613Z,100558.41
2023-01-30T07:53:50.078Z,100555.16
2023-01-30T07:57:02.785Z,100553.88
2023-01-30T08:00:16.616Z,100558.41
2023-01-30T08:03:29.500Z,100553.25
2023-01-30T08:06:41.886Z,100548.91
2023-01-30T08:09:54.545Z,100534.63
2023-01-30T08:13:06.882Z,100538.91
2023-01-30T08:16:19.588Z,100544.97
2023-01-30T08:19:32.042Z,100533.69
2023-01-30T08:22:44.730Z,100534.22
2023-01-30T08:25:58.091Z,100530.00
2023-01-30T08:29:10.783Z,100516.06
2023-01-30T08:32:23.178Z,100519.84
2023-01-30T08:35:35.880Z,100496.44
2023-01-30T08:38:48.226Z,100458.91
2023-01-30T08:42:00.924Z,100457.34
2023-01-30T08:45:13.382Z,100463.56
2023-01-30T08:48:28.192Z,100465.53
2023-01-30T08:51:40.696Z,100471.06
2023-01-30T08:54:53.397Z,100470.91
2023-01-30T08:58:05.783Z,100473.00
2023-01-30T09:01:18.480Z,100470.00
2023-01-30T09:04:30.979Z,100477.44
2023-01-30T09:07:43.682Z,100463.28
2023-01-30T09:11:04.021Z,100464.59
2023-01-30T09:14:19.749Z,100463.78
2023-01-30T09:17:32.099Z,100466.00
2023-01-30T09:20:44.883Z,100464.91
2023-01-30T09:23:57.360Z,100467.25
2023-01-30T09:27:09.990Z,100462.22
2023-01-30T09:30:22.470Z,100454.94
2023-01-30T09:33:35.394Z,100462.59
2023-01-30T09:36:47.797Z,100449.66
2023-01-30T09:40:00.429Z,100428.03
2023-01-30T09:43:15.381Z,100425.69
2023-01-30T09:46:38.791Z,100411.19
2023-01-30T09:50:02.063Z,100407.81
2023-01-30T09:53:23.974Z,100397.66
2023-01-30T09:56:36.340Z,100395.00
2023-01-30T10:00:12.145Z,100384.69
2023-01-30T10:03:31.293Z,100385.97
2023-01-30T10:07:10.491Z,100369.50
2023-01-30T10:10:35.408Z,100369.44
2023-01-30T10:13:59.948Z,100366.97
2023-01-30T10:17:35.146Z,100362.00
2023-01-30T10:20:53.390Z,100355.41
2023-01-30T10:24:24.434Z,100361.12
2023-01-30T10:27:49.057Z,100342.97
2023-01-30T10:31:06.203Z,100331.03
2023-01-30T10:34:23.239Z,100332.53
2023-01-30T10:37:57.354Z,100327.47
2023-01-30T10:41:44.180Z,100320.59
2023-01-30T10:45:02.262Z,100316.06
2023-01-30T10:48:43.247Z,100304.44
2023-01-30T10:52:20.180Z,100291.22
2023-01-30T10:55:46.892Z,100296.22
2023-01-30T10:59:01.898Z,100272.50
2023-01-30T11:02:25.131Z,100278.19
2023-01-30T11:05:56.381Z,100262.66
2023-01-30T11:09:09.032Z,100257.37
2023-01-30T11:12:21.418Z,100244.88
2023-01-30T11:15:44.650Z,100242.19
2023-01-30T11:19:19.745Z,100249.78
2023-01-30T11:22:34.357Z,100227.75
2023-01-30T11:26:02.393Z,100228.53
2023-01-30T11:29:27.469Z,100222.19
2023-01-30T11:32:40.178Z,100215.56
2023-01-30T11:35:54.429Z,100200.00
2023-01-30T11:39:12.843Z,100182.28
2023-01-30T11:42:29.989Z,100191.09
2023-01-30T11:45:47.574Z,100169.44
2023-01-30T11:49:46.040Z,100168.59
2023-01-30T11:52:37.742Z,100148.63
2023-01-30T11:56:03.004Z,100152.13
2023-01-30T11:59:36.829Z,100144.56
2023-01-30T12:02:50.308Z,100141.06
2023-01-30T12:06:03.011Z,100106.16
2023-01-30T12:09:39.965Z,100139.16
2023-01-30T12:12:55.079Z,100116.69
2023-01-30T12:16:21.213Z,100134.03
2023-01-30T12:19:45.600Z,100127.78
2023-01-30T12:23:32.010Z,100114.41
2023-01-30T12:27:04.992Z,100120.97
2023-01-30T12:30:29.544Z,100111.03
2023-01-30T12:33:42.184Z,100104.00
2023-01-30T12:37:10.592Z,100100.47
2023-01-30T12:41:11.922Z,100098.06
2023-01-30T12:44:49.408Z,100080.19
2023-01-30T12:48:05.010Z,100074.41
2023-01-30T12:51:38.501Z,100054.50
2023-01-30T12:55:18.852Z,100055.16
2023-01-30T12:58:43.794Z,100054.50
2023-01-30T13:02:37.874Z,100067.22
2023-01-30T13:05:57.174Z,100069.91
2023-01-30T13:09:22.202Z,100068.75
2023-01-30T13:12:34.463Z,100069.56
2023-01-30T13:16:12.079Z,100072.47
2023-01-30T13:19:40.873Z,100057.94
2023-01-30T13:23:02.337Z,100061.09
2023-01-30T13:26:19.983Z,100056.06
2023-01-30T13:29:39.807Z,100043.38
2023-01-30T13:32:53.448Z,100035.00
2023-01-30T13:36:25.779Z,100019.31
2023-01-30T13:39:51.231Z,100010.16
2023-01-30T13:43:38.735Z,99998.06
2023-01-30T13:46:52.538Z,99994.81
2023-01-30T13:50:20.812Z,99991.19
2023-01-30T13:53:42.591Z,99987.44
2023-01-30T13:56:57.999Z,99979.44
2023-01-30T14:00:24.766Z,99984.69
2023-01-30T14:03:37.929Z,99977.16
2023-01-30T14:06:50.520Z,99978.28
2023-01-30T14:10:09.083Z,99982.84
2023-01-30T14:13:21.462Z,99974.75
2023-01-30T14:16:48.288Z,99983.19
2023-01-30T14:20:16.457Z,99977.69
2023-01-30T14:23:30.107Z,99980.25
2023-01-30T14:26:48.469Z,99986.41
2023-01-30T14:30:01.160Z,99978.34
2023-01-30T14:33:19.244Z,99987.25
2023-01-30T14:36:34.155Z,99987.66
2023-01-30T14:39:49.598Z,99991.81
2023-01-30T14:43:19.537Z,99994.00
2023-01-30T14:46:31.825Z,99996.41
2023-01-30T14:49:44.470Z,100009.09
2023-01-30T14:52:56.792Z,99992.66
2023-01-30T14:56:09.433Z,99994.28
2023-01-30T14:59:27.844Z,99994.22
2023-01-30T15:02:44.228Z,99995.69
2023-01-30T15:05:58.860Z,99990.84
2023-01-30T15:09:12.079Z,99990.06
2023-01-30T15:12:52.929Z,99986.31
2023-01-30T15:16:37.734Z,99986.66
2023-01-30T15:20:23.567Z,99993.09
2023-01-30T15:23:46.567Z,99985.84
2023-01-30T15:27:27.285Z,99988.81
2023-01-30T15:30:39.849Z,99974.88
2023-01-30T15:33:53.750Z,99980.53
2023-01-30T15:37:16.331Z,99987.84
2023-01-30T15:40:29.154Z,99988.47
2023-01-30T15:44:05.940Z,99982.62
2023-01-30T15:47:54.911Z,99979.34
2023-01-30T15:51:12.385Z,99982.00
2023-01-30T15:54:25.021Z,99989.38
2023-01-30T15:57:38.729Z,99992.59
2023-01-30T16:00:53.090Z,100004.34
2023-01-30T16:04:08.108Z,100009.19
2023-01-30T16:07:24.873Z,100009.94
2023-01-30T16:10:46.667Z,100010.97
2023-01-30T16:14:00.808Z,100021.41
2023-01-30T16:17:13.435Z,100012.91
2023-01-30T16:20:25.749Z,100025.16
2023-01-30T16:23:56.173Z,100006.25
2023-01-30T16:27:08.552Z,100010.88
2023-01-30T16:30:28.726Z,100013.84
2023-01-30T16:33:41.128Z,100014.72
2023-01-30T16:36:53.728Z,100022.22
2023-01-30T16:40:19.024Z,100033.28
2023-01-30T16:43:33.466Z,100030.31
2023-01-30T16:46:46.650Z,100025.00
2023-01-30T16:49:59.380Z,100018.78
2023-01-30T16:53:16.523Z,100030.63
2023-01-30T16:56:30.569Z,100021.47
2023-01-30T16:59:42.888Z,100014.41
2023-01-30T17:03:02.544Z,100007.97
2023-01-30T17:06:29.280Z,100009.59
2023-01-30T17:09:48.579Z,100011.53
2023-01-30T17:13:00.919Z,100014.75
2023-01-30T17:16:22.291Z,100012.91
2023-01-30T17:19:34.985Z,100001.41
2023-01-30T17:22:48.543Z,100011.53
2023-01-30T17:26:01.851Z,100003.06
2023-01-30T17:29:28.893Z,100005.03
2023-01-30T17:32:46.289Z,100005.63
2023-01-30T17:35:59.032Z,99995.34
2023-01-30T17:39:12.719Z,99990.50
2023-01-30T17:42:25.342Z,99990.22
2023-01-30T17:45:37.713Z,100004.03
2023-01-30T17:48:51.810Z,100004.81
2023-01-30T17:52:04.280Z,100013.03
2023-01-30T17:55:17.420Z,100014.44
2023-01-30T17:58:30.040Z,100006.84
2023-01-30T18:01:47.230Z,100000.37
2023-01-30T18:04:59.683Z,99985.63
2023-01-30T18:08:13.971Z,99987.38
2023-01-30T18:11:26.787Z,99978.31
2023-01-30T18:14:40.188Z,99965.47
2023-01-30T18:17:56.437Z,99985.91
2023-01-30T18:21:08.790Z,100000.09
2023-01-30T18:24:22.711Z,99986.19
2023-01-30T18:27:35.143Z,99991.84
2023-01-30T18:30:47.909Z,100000.75
2023-01-30T18:34:00.345Z,99992.50
2023-01-30T18:37:13.007Z,99997.12
2023-01-30T18:40:25.406Z,100002.50
2023-01-30T18:43:38.004Z,100002.38
2023-01-30T18:46:50.440Z,100005.06
2023-01-30T18:50:03.095Z,100020.37
2023-01-30T18:53:15.401Z,100018.19
2023-01-30T18:56:31.039Z,100021.84
2023-01-30T18:59:43.428Z,100019.38
2023-01-30T19:02:56.072Z,100016.28
2023-01-30T19:06:11.621Z,100018.84
2023-01-30T19:09:24.544Z,100027.78
2023-01-30T19:12:55.491Z,100033.16
2023-01-30T19:16:08.310Z,100028.28
2023-01-30T19:19:20.770Z,100030.56
2023-01-30T19:22:34.024Z,100026.53
2023-01-30T19:25:56.185Z,100023.87
2023-01-30T19:29:09.264Z,100032.78
2023-01-30T19:32:22.289Z,100031.44
2023-01-30T19:35:34.972Z,100037.22
2023-01-30T19:38:47.960Z,100046.38
2023-01-30T19:42:01.080Z,100027.00
2023-01-30T19:45:14.577Z,100026.19
2023-01-30T19:48:27.199Z,100032.12
2023-01-30T19:51:40.648Z,100032.03
2023-01-30T19:54:53.268Z,100034.34
2023-01-30T19:58:05.641Z,100046.81
2023-01-30T20:01:19.427Z,100035.94
2023-01-30T20:04:32.137Z,100030.81
2023-01-30T20:07:46.466Z,100029.06
2023-01-30T20:11:06.503Z,100030.53
2023-01-30T20:14:18.885Z,100027.31
2023-01-30T20:17:34.384Z,100039.16
2023-01-30T20:20:46.726Z,100034.25
2023-01-30T20:24:00.215Z,100033.09
2023-01-30T20:27:12.592Z,100027.94
2023-01-30T20:30:25.442Z,100016.56
2023-01-30T20:33:38.077Z,100016.13
2023-01-30T20:36:50.640Z,100011.34
2023-01-30T20:40:03.067Z,100009.16
2023-01-30T20:43:17.585Z,100008.56
2023-01-30T20:46:41.570Z,100009.03
2023-01-30T20:49:54.402Z,100019.03
2023-01-30T20:53:07.050Z,100022.50
2023-01-30T20:56:20.574Z,100018.72
2023-01-30T20:59:33.005Z,100020.47
2023-01-30T21:02:48.493Z,100010.75
2023-01-30T21:06:01.439Z,99999.66
2023-01-30T21:09:19.743Z,99995.59
2023-01-30T21:12:32.122Z,99991.78
2023-01-30T21:15:44.746Z,99992.16
2023-01-30T21:19:01.302Z,99985.28
2023-01-30T21:22:15.489Z,99992.28
2023-01-30T21:25:27.827Z,99983.50
2023-01-30T21:28:40.571Z,99989.72
2023-01-30T21:31:53.060Z,99997.97
2023-01-30T21:35:06.159Z,99993.53
2023-01-30T21:38:37.176Z,99999.31
2023-01-30T21:41:58.792Z,100003.50
2023-01-30T21:45:11.279Z,100021.00
2023-01-30T21:48:23.889Z,100003.56
2023-01-30T21:51:37.848Z,100019.91
2023-01-30T21:54:50.487Z,100008.88
2023-01-30T21:58:02.823Z,100027.44
2023-01-30T22:01:15.612Z,100027.59
2023-01-30T22:04:28.245Z,100019.13
2023-01-30T22:07:40.567Z,100018.00
2023-01-30T22:11:13.442Z,100018.62
2023-01-30T22:14:26.172Z,100015.06
2023-01-30T22:17:38.803Z,100021.94
2023-01-30T22:20:51.112Z,100005.16
2023-01-30T22:24:05.383Z,100010.31
2023-01-30T22:27:17.696Z,99999.66
2023-01-30T22:30:30.311Z,100000.09
2023-01-30T22:33:50.223Z,100003.13
2023-01-30T22:37:02.824Z,100000.56
2023-01-30T22:40:15.364Z,100002.53
2023-01-30T22:43:29.390Z,99988.06
2023-01-30T22:46:41.909Z,99994.66
2023-01-30T22:49:54.494Z,99989.69
2023-01-30T22:53:06.857Z,100002.91
2023-01-30T22:56:21.174Z,99985.94
2023-01-30T22:59:33.527Z,99983.47
2023-01-30T23:02:46.183Z,99995.53
2023-01-30T23:06:02.320Z,99991.63
2023-01-30T23:09:16.554Z,99991.72
2023-01-30T23:12:48.072Z,99975.91
2023-01-30T23:16:01.702Z,99976.53
2023-01-30T23:19:14.511Z,99969.16
2023-01-30T23:22:27.068Z,99952.16
2023-01-30T23:25:40.471Z,99959.53
2023-01-30T23:28:53.284Z,99950.84
2023-01-30T23:32:06.027Z,99950.09
2023-01-30T23:35:19.136Z,99965.47
2023-01-30T23:38:31.665Z,99934.16
2023-01-30T23:41:44.321Z,99941.22
2023-01-30T23:44:56.620Z,99947.69
2023-01-30T23:48:09.417Z,99941.22
2023-01-30T23:51:23.931Z,99958.00
2023-01-30T23:54:36.558Z,99965.88
2023-01-30T23:57:48.907Z,99952.50
